Aviation Digital Data Service (ADDS)

Output produced by METARs form (0427 UTC 30 March 2015)
found at http://aviationweather.gov/adds/metars/
 
KHUL 292340Z 3000/3024 22004KT P6SM SCT120 BKN220 
     FM301200 18008KT P6SM BKN080 OVC150 
     FM301600 18012G20KT P6SM OVC050 
     FM301700 18014G23KT 6SM -SHRA OVC030 
     FM301900 18014G23KT 4SM -SHRA OVC018 
     FM302100 18012G20KT 3SM -SHRA OVC012